Terminal Aerodrome Forecast
Issued by NWS

Current Version | Previous Version | Text Only | Print | Product List | Glossary On
Versions: 1 2 3 4 5 6 7 8 9 10 11 12 13 14 15 16
000
FTUS44 KTSA 240500
TAFXNA
TAF
KXNA 240520Z 2406/2506 VRB04KT P6SM FEW250
      TEMPO 2410/2413 3SM BR SCT008
     FM241500 09006KT P6SM SCT050
     FM250100 13004KT P6SM SKC=

USA.gov is the U.S. government's official web portal to all federal, state and local government web resources and services.